Mineral Ridge, OH (44440)

1:52 PM EDT on July 29, 2016 (GMT -0400)
Sablecreek | | Change Station

Elev 1027 ft 41.14 °N, 80.75 °W | Updated 1 minute ago

Mostly Cloudy
Mostly Cloudy
83.6 °F
Feels Like 93 °F
N
2.7
Wind Variable Wind from West

Today
High -- | Low -- °F
--% Chance of Precip.
Yesterday
High -- | Low -- °F
Precip. -- in
Pressure 29.94 in
Visibility 10.0 miles
Clouds Mostly Cloudy 3000 ft
Heat Index 93 °F
Dew Point 77 °F
Humidity 81%
Rainfall 0.00 in
Snow Depth Not available.
6:16 AM 8:42 PM
Waning Crescent, 20% visible
METAR KYNG 291651Z 13003KT 10SM BKN030 26/19 A2996 RMK AO2 SLP137 T02610189
Pressure 29.94 in
Visibility 10.0 miles
Clouds Mostly Cloudy 3000 ft
Heat Index 93 °F
Dew Point 77 °F
Humidity 81%
Rainfall 0.00 in
Snow Depth Not available.
6:16 AM 8:42 PM
Waning Crescent, 20% visible
METAR KYNG 291651Z 13003KT 10SM BKN030 26/19 A2996 RMK AO2 SLP137 T02610189

10-Day Weather Forecast

Almanac

Astronomy

Jul. 29, 2016 Rise Set
Actual Time
Civil Twilight
Nautical Twilight
Astronomical Twilight
Moon
Length of Visible Light
Length of Day
Tomorrow will be .
, % of the Moon is Illuminated

Today's Extremes

State Highs State Lows

Community

WunderPhotos

Upload Photos

1,928,382 photos uploaded!

WunderBlog® & News

Nearby

Air Quality

  Air Quality AQ Index Pollutant
Not available.

Snow Depth

Station Depth Elevation

Earthquake Activity

City Distance Mag. Time & Date
Minimum magnitude displayed is 2.5.

Coastal Water Temperatures

Place Temperature

Stations

Nearby Weather Stations

Station Location Temp. Windchill Dew Point Humidity Wind Precip. Elev Updated Type
                   

Watches & Warnings

There are currently no watches in effect.